createdAt,value
2023-02-27T00:00:56.881Z,99.90
2023-02-27T00:03:26.858Z,99.90
2023-02-27T00:05:56.292Z,99.90
2023-02-27T00:08:25.281Z,99.90
2023-02-27T00:10:53.299Z,99.90
2023-02-27T00:13:21.380Z,99.90
2023-02-27T00:15:50.409Z,99.90
2023-02-27T00:18:19.121Z,99.90
2023-02-27T00:20:48.747Z,99.90
2023-02-27T00:23:16.835Z,99.90
2023-02-27T00:25:45.181Z,99.90
2023-02-27T00:28:13.442Z,99.90
2023-02-27T00:30:41.424Z,99.90
2023-02-27T00:33:09.421Z,99.90
2023-02-27T00:35:37.396Z,99.90
2023-02-27T00:38:06.858Z,99.90
2023-02-27T00:40:35.959Z,99.90
2023-02-27T00:43:03.937Z,99.90
2023-02-27T00:45:32.124Z,99.90
2023-02-27T00:48:00.196Z,99.90
2023-02-27T00:50:28.207Z,99.90
2023-02-27T00:52:56.165Z,99.90
2023-02-27T00:55:27.241Z,99.90
2023-02-27T00:57:55.484Z,99.90
2023-02-27T01:00:23.586Z,99.90
2023-02-27T01:02:51.640Z,99.90
2023-02-27T01:05:19.970Z,99.90
2023-02-27T01:07:48.011Z,99.90
2023-02-27T01:10:16.172Z,99.90
2023-02-27T01:12:45.511Z,99.90
2023-02-27T01:15:14.246Z,99.90
2023-02-27T01:17:42.289Z,99.90
2023-02-27T01:20:12.895Z,99.90
2023-02-27T01:22:41.042Z,99.90
2023-02-27T01:25:10.346Z,99.90
2023-02-27T01:27:38.453Z,99.90
2023-02-27T01:30:10.674Z,99.90
2023-02-27T01:32:39.073Z,99.90
2023-02-27T01:35:07.860Z,99.90
2023-02-27T01:37:35.916Z,99.90
2023-02-27T01:40:05.261Z,99.90
2023-02-27T01:42:33.951Z,99.90
2023-02-27T01:45:24.125Z,99.90
2023-02-27T01:47:57.176Z,99.90
2023-02-27T01:50:25.715Z,99.90
2023-02-27T01:53:01.181Z,99.90
2023-02-27T01:55:32.394Z,99.90
2023-02-27T01:58:01.424Z,99.90
2023-02-27T02:00:31.101Z,99.90
2023-02-27T02:03:08.285Z,99.90
2023-02-27T02:05:36.878Z,99.90
2023-02-27T02:08:05.649Z,99.90
2023-02-27T02:10:34.750Z,99.90
2023-02-27T02:13:03.654Z,99.90
2023-02-27T02:15:53.530Z,99.90
2023-02-27T02:18:30.332Z,99.90
2023-02-27T02:21:32.633Z,99.90
2023-02-27T02:24:45.827Z,99.90
2023-02-27T02:27:28.043Z,99.90
2023-02-27T02:30:26.187Z,99.90
2023-02-27T02:33:38.336Z,99.90
2023-02-27T02:36:29.054Z,99.90
2023-02-27T02:39:16.232Z,99.90
2023-02-27T02:41:56.032Z,99.90
2023-02-27T02:44:33.136Z,99.90
2023-02-27T02:47:07.157Z,99.90
2023-02-27T02:49:44.409Z,99.90
2023-02-27T02:52:20.174Z,99.90
2023-02-27T02:54:55.780Z,99.90
2023-02-27T02:57:39.547Z,99.90
2023-02-27T03:00:11.757Z,99.90
2023-02-27T03:02:45.108Z,99.90
2023-02-27T03:05:18.411Z,99.90
2023-02-27T03:07:52.464Z,99.90
2023-02-27T03:10:27.385Z,99.90
2023-02-27T03:13:02.198Z,99.90
2023-02-27T03:15:34.818Z,99.90
2023-02-27T03:18:08.286Z,99.90
2023-02-27T03:20:40.692Z,99.90
2023-02-27T03:23:14.521Z,99.90
2023-02-27T03:25:46.484Z,99.90
2023-02-27T03:28:19.653Z,99.90
2023-02-27T03:30:53.373Z,99.90
2023-02-27T03:33:28.183Z,99.90
2023-02-27T03:36:03.069Z,99.90
2023-02-27T03:38:37.358Z,99.90
2023-02-27T03:41:14.369Z,99.90
2023-02-27T03:43:49.476Z,99.90
2023-02-27T03:46:20.376Z,99.90
2023-02-27T03:48:48.800Z,99.90
2023-02-27T03:51:19.695Z,99.90
2023-02-27T03:53:51.930Z,99.90
2023-02-27T03:56:26.713Z,99.90
2023-02-27T03:58:55.315Z,99.90
2023-02-27T04:01:23.755Z,99.90
2023-02-27T04:03:57.779Z,99.90
2023-02-27T04:06:44.043Z,99.90
2023-02-27T04:09:22.087Z,99.90
2023-02-27T04:12:06.109Z,99.90
2023-02-27T04:14:46.731Z,99.90
2023-02-27T04:17:23.017Z,99.90
2023-02-27T04:20:13.488Z,99.90
2023-02-27T04:22:47.518Z,99.90
2023-02-27T04:25:39.143Z,99.90
2023-02-27T04:28:17.448Z,99.90
2023-02-27T04:31:01.564Z,99.90
2023-02-27T04:33:41.028Z,99.90
2023-02-27T04:36:14.963Z,99.90
2023-02-27T04:38:49.071Z,99.90
2023-02-27T04:41:22.944Z,99.90
2023-02-27T04:43:54.629Z,99.90
2023-02-27T04:46:27.573Z,99.90
2023-02-27T04:49:00.517Z,99.90
2023-02-27T04:51:34.037Z,99.90
2023-02-27T04:54:05.357Z,99.90
2023-02-27T04:56:37.215Z,99.90
2023-02-27T04:59:10.636Z,99.90
2023-02-27T05:01:43.160Z,99.90
2023-02-27T05:04:14.045Z,99.90
2023-02-27T05:06:45.310Z,99.90
2023-02-27T05:09:18.250Z,99.90
2023-02-27T05:11:52.060Z,99.90
2023-02-27T05:14:29.160Z,99.90
2023-02-27T05:17:05.389Z,99.90
2023-02-27T05:19:34.736Z,99.90
2023-02-27T05:22:14.426Z,99.90
2023-02-27T05:24:51.225Z,99.90
2023-02-27T05:27:24.835Z,99.90
2023-02-27T05:29:57.899Z,99.90
2023-02-27T05:32:34.652Z,99.90
2023-02-27T05:35:10.247Z,99.90
2023-02-27T05:37:43.244Z,99.90
2023-02-27T05:40:14.584Z,99.90
2023-02-27T05:42:47.356Z,99.90
2023-02-27T05:45:22.108Z,99.90
2023-02-27T05:47:58.166Z,99.90
2023-02-27T05:50:29.476Z,99.90
2023-02-27T05:53:01.456Z,99.90
2023-02-27T05:55:35.518Z,99.90
2023-02-27T05:58:09.390Z,99.90
2023-02-27T06:00:42.082Z,99.90
2023-02-27T06:03:10.396Z,99.90
2023-02-27T06:05:40.645Z,99.90
2023-02-27T06:08:08.749Z,99.90
2023-02-27T06:10:46.375Z,99.90
2023-02-27T06:13:14.462Z,99.90
2023-02-27T06:15:43.789Z,99.90
2023-02-27T06:18:12.405Z,99.90
2023-02-27T06:20:41.052Z,99.90
2023-02-27T06:23:09.247Z,99.90
2023-02-27T06:25:37.868Z,99.90
2023-02-27T06:28:06.234Z,99.90
2023-02-27T06:30:34.318Z,99.90
2023-02-27T06:33:04.345Z,99.90
2023-02-27T06:35:32.681Z,99.90
2023-02-27T06:38:01.037Z,99.90
2023-02-27T06:40:29.184Z,99.90
2023-02-27T06:42:57.281Z,99.90
2023-02-27T06:45:25.520Z,99.90
2023-02-27T06:47:53.587Z,99.90
2023-02-27T06:50:23.045Z,99.90
2023-02-27T06:52:51.051Z,99.90
2023-02-27T06:55:20.979Z,99.60
2023-02-27T06:57:49.424Z,98.00
2023-02-27T07:00:18.674Z,96.80
2023-02-27T07:02:46.906Z,95.50
2023-02-27T07:05:14.977Z,94.50
2023-02-27T07:07:44.589Z,92.60
2023-02-27T07:10:14.500Z,91.60
2023-02-27T07:12:43.081Z,90.10
2023-02-27T07:15:12.149Z,86.80
2023-02-27T07:17:40.566Z,85.00
2023-02-27T07:20:12.153Z,79.70
2023-02-27T07:22:41.001Z,76.90
2023-02-27T07:25:11.327Z,74.30
2023-02-27T07:27:39.621Z,72.30
2023-02-27T07:30:08.914Z,70.80
2023-02-27T07:32:37.040Z,69.40
2023-02-27T07:35:05.522Z,64.50
2023-02-27T07:37:33.565Z,62.70
2023-02-27T07:40:01.612Z,62.30
2023-02-27T07:42:30.921Z,63.40
2023-02-27T07:44:58.958Z,62.90
2023-02-27T07:47:27.248Z,60.10
2023-02-27T07:49:55.420Z,59.10
2023-02-27T07:52:23.585Z,58.50
2023-02-27T07:54:52.492Z,57.30
2023-02-27T07:57:20.550Z,56.30
2023-02-27T07:59:49.868Z,56.40
2023-02-27T08:02:17.765Z,54.50
2023-02-27T08:04:45.780Z,55.00
2023-02-27T08:07:13.799Z,55.80
2023-02-27T08:09:41.809Z,56.30
2023-02-27T08:12:09.842Z,56.40
2023-02-27T08:14:38.789Z,55.70
2023-02-27T08:17:09.165Z,56.50
2023-02-27T08:19:37.211Z,55.20
2023-02-27T08:22:05.215Z,54.10
2023-02-27T08:24:33.328Z,54.60
2023-02-27T08:27:01.740Z,54.10
2023-02-27T08:29:31.254Z,52.90
2023-02-27T08:31:59.585Z,52.50
2023-02-27T08:34:30.403Z,51.40
2023-02-27T08:36:59.135Z,51.20
2023-02-27T08:39:27.368Z,52.20
2023-02-27T08:41:55.589Z,53.80
2023-02-27T08:44:23.675Z,54.10
2023-02-27T08:46:51.962Z,55.20
2023-02-27T08:49:21.662Z,55.00
2023-02-27T08:51:51.731Z,53.60
2023-02-27T08:54:21.020Z,51.90
2023-02-27T08:56:49.935Z,51.70
2023-02-27T08:59:18.555Z,51.60
2023-02-27T09:01:46.908Z,51.60
2023-02-27T09:04:15.167Z,51.10
2023-02-27T09:06:44.512Z,51.00
2023-02-27T09:09:14.224Z,49.80
2023-02-27T09:11:42.507Z,50.00
2023-02-27T09:14:11.029Z,47.80
2023-02-27T09:16:39.508Z,48.70
2023-02-27T09:19:08.019Z,47.90
2023-02-27T09:21:37.497Z,48.40
2023-02-27T09:24:18.606Z,49.20
2023-02-27T09:26:49.475Z,49.00
2023-02-27T09:29:18.065Z,49.40
2023-02-27T09:31:46.319Z,50.70
2023-02-27T09:34:15.089Z,50.60
2023-02-27T09:36:43.481Z,50.30
2023-02-27T09:39:12.389Z,50.70
2023-02-27T09:41:52.319Z,50.70
2023-02-27T09:44:45.172Z,50.40
2023-02-27T09:47:18.443Z,51.50
2023-02-27T09:50:03.370Z,51.50
2023-02-27T09:52:34.119Z,47.90
2023-02-27T09:55:03.118Z,46.30
2023-02-27T09:57:45.711Z,45.30
2023-02-27T10:00:36.239Z,45.30
2023-02-27T10:03:17.765Z,45.20
2023-02-27T10:05:52.164Z,47.00
2023-02-27T10:08:27.488Z,48.30
2023-02-27T10:11:01.450Z,49.20
2023-02-27T10:13:56.759Z,49.40
2023-02-27T10:16:26.900Z,51.10
2023-02-27T10:18:58.897Z,53.00
2023-02-27T10:21:32.967Z,55.50
2023-02-27T10:24:07.923Z,57.60
2023-02-27T10:26:40.756Z,58.90
2023-02-27T10:29:19.259Z,61.10
2023-02-27T10:31:50.156Z,61.60
2023-02-27T10:34:18.731Z,61.20
2023-02-27T10:36:48.705Z,60.60
2023-02-27T10:39:20.963Z,60.50
2023-02-27T10:41:51.738Z,59.10
2023-02-27T10:44:21.318Z,58.40
2023-02-27T10:46:51.905Z,56.30
2023-02-27T10:49:22.089Z,56.60
2023-02-27T10:52:08.856Z,57.80
2023-02-27T10:54:37.317Z,58.70
2023-02-27T10:57:18.534Z,59.30
2023-02-27T10:59:54.364Z,59.90
2023-02-27T11:02:26.028Z,61.20
2023-02-27T11:04:56.799Z,62.80
2023-02-27T11:07:33.934Z,62.90
2023-02-27T11:10:17.835Z,60.30
2023-02-27T11:13:00.943Z,60.30
2023-02-27T11:15:32.409Z,60.00
2023-02-27T11:18:27.329Z,60.20
2023-02-27T11:21:09.982Z,59.30
2023-02-27T11:23:38.150Z,59.10
2023-02-27T11:26:12.715Z,58.50
2023-02-27T11:28:41.060Z,59.30
2023-02-27T11:31:18.928Z,57.90
2023-02-27T11:33:51.778Z,58.50
2023-02-27T11:36:20.054Z,58.20
2023-02-27T11:38:54.012Z,57.80
2023-02-27T11:41:31.126Z,58.50
2023-02-27T11:44:00.938Z,57.30
2023-02-27T11:46:42.898Z,57.30
2023-02-27T11:49:29.138Z,56.20
2023-02-27T11:52:04.672Z,56.20
2023-02-27T11:54:39.485Z,55.50
2023-02-27T11:57:18.491Z,55.10
2023-02-27T11:59:52.957Z,56.10
2023-02-27T12:02:30.452Z,55.80
2023-02-27T12:05:06.491Z,54.70
2023-02-27T12:07:42.777Z,55.20
2023-02-27T12:10:17.813Z,55.50
2023-02-27T12:12:51.002Z,57.30
2023-02-27T12:15:32.560Z,57.40
2023-02-27T12:18:16.527Z,57.10
2023-02-27T12:20:54.208Z,58.20
2023-02-27T12:23:27.934Z,59.60
2023-02-27T12:26:03.648Z,60.00
2023-02-27T12:28:44.985Z,59.50
2023-02-27T12:31:42.045Z,58.00
2023-02-27T12:34:22.060Z,58.10
2023-02-27T12:36:50.179Z,58.70
2023-02-27T12:39:21.767Z,58.50
2023-02-27T12:42:25.297Z,59.30
2023-02-27T12:45:20.948Z,59.60
2023-02-27T12:47:57.349Z,60.10
2023-02-27T12:50:42.871Z,61.50
2023-02-27T12:53:37.770Z,61.30
2023-02-27T12:56:14.375Z,60.80
2023-02-27T12:58:51.951Z,60.00
2023-02-27T13:01:33.387Z,61.00
2023-02-27T13:04:08.421Z,61.80
2023-02-27T13:06:48.468Z,62.30
2023-02-27T13:09:25.807Z,61.50
2023-02-27T13:12:03.124Z,62.20
2023-02-27T13:14:39.554Z,60.90
2023-02-27T13:17:18.582Z,59.70
2023-02-27T13:19:51.480Z,60.10
2023-02-27T13:22:30.943Z,59.80
2023-02-27T13:25:03.936Z,58.80
2023-02-27T13:27:40.169Z,58.70
2023-02-27T13:30:22.876Z,59.70
2023-02-27T13:32:57.274Z,59.60
2023-02-27T13:35:36.176Z,60.10
2023-02-27T13:38:35.858Z,60.60
2023-02-27T13:41:43.665Z,60.70
2023-02-27T13:44:49.235Z,61.40
2023-02-27T13:47:48.031Z,60.70
2023-02-27T13:50:51.747Z,60.90
2023-02-27T13:53:24.437Z,61.40
2023-02-27T13:55:56.517Z,62.00
2023-02-27T13:58:25.821Z,62.90
2023-02-27T14:01:00.538Z,62.50
2023-02-27T14:03:32.201Z,61.00
2023-02-27T14:06:06.945Z,62.10
2023-02-27T14:08:47.612Z,61.80
2023-02-27T14:11:21.651Z,61.30
2023-02-27T14:14:28.822Z,61.90
2023-02-27T14:17:03.756Z,61.70
2023-02-27T14:19:59.523Z,61.60
2023-02-27T14:22:44.052Z,61.30
2023-02-27T14:25:22.240Z,60.00
2023-02-27T14:27:56.980Z,60.90
2023-02-27T14:30:44.922Z,61.70
2023-02-27T14:33:24.116Z,61.00
2023-02-27T14:36:01.216Z,60.60
2023-02-27T14:38:30.970Z,62.10
2023-02-27T14:41:35.864Z,62.90
2023-02-27T14:44:06.561Z,63.00
2023-02-27T14:46:39.328Z,63.60
2023-02-27T14:49:20.493Z,63.20
2023-02-27T14:51:49.039Z,62.40
2023-02-27T14:54:18.781Z,61.70
2023-02-27T14:56:56.910Z,62.30
2023-02-27T14:59:26.778Z,62.40
2023-02-27T15:01:59.035Z,63.20
2023-02-27T15:04:35.008Z,62.60
2023-02-27T15:07:04.473Z,62.70
2023-02-27T15:09:43.519Z,61.90
2023-02-27T15:12:20.749Z,61.90
2023-02-27T15:14:59.541Z,62.20
2023-02-27T15:17:30.882Z,62.60
2023-02-27T15:20:01.654Z,63.40
2023-02-27T15:22:39.333Z,63.40
2023-02-27T15:28:53.883Z,64.00
2023-02-27T15:31:26.777Z,64.40
2023-02-27T15:33:56.488Z,65.60
2023-02-27T15:36:29.467Z,65.30
2023-02-27T15:39:16.811Z,65.60
2023-02-27T15:41:53.177Z,66.40
2023-02-27T15:47:45.850Z,67.20
2023-02-27T15:50:36.926Z,66.90
2023-02-27T15:53:35.749Z,67.10
2023-02-27T15:56:11.507Z,66.30
2023-02-27T15:58:53.059Z,65.30
2023-02-27T16:01:31.701Z,64.90
2023-02-27T16:04:22.884Z,65.40
2023-02-27T16:07:01.872Z,64.40
2023-02-27T16:09:49.483Z,64.60
2023-02-27T16:12:38.391Z,65.40
2023-02-27T16:15:46.235Z,65.80
2023-02-27T16:18:32.092Z,66.60
2023-02-27T16:21:11.451Z,67.30
2023-02-27T16:23:51.845Z,67.60
2023-02-27T16:26:29.228Z,67.80
2023-02-27T16:29:00.098Z,68.30
2023-02-27T16:31:31.177Z,68.70
2023-02-27T16:34:05.269Z,68.80
2023-02-27T16:36:34.262Z,68.90
2023-02-27T16:39:02.539Z,69.20
2023-02-27T16:41:30.746Z,69.40
2023-02-27T16:43:59.307Z,69.10
2023-02-27T16:46:28.219Z,69.20
2023-02-27T16:49:14.188Z,69.40
2023-02-27T16:51:49.454Z,69.70
2023-02-27T16:54:20.921Z,70.10
2023-02-27T16:56:50.554Z,69.80
2023-02-27T16:59:29.761Z,70.20
2023-02-27T17:01:59.293Z,69.30
2023-02-27T17:04:29.417Z,69.10
2023-02-27T17:07:03.294Z,69.30
2023-02-27T17:09:32.541Z,69.20
2023-02-27T17:12:00.775Z,69.20
2023-02-27T17:14:31.865Z,69.30
2023-02-27T17:17:02.247Z,69.00
2023-02-27T17:19:30.512Z,69.20
2023-02-27T17:22:00.085Z,69.70
2023-02-27T17:24:28.739Z,69.80
2023-02-27T17:26:57.632Z,70.00
2023-02-27T17:29:25.936Z,69.70
2023-02-27T17:31:54.407Z,69.70
2023-02-27T17:34:22.837Z,70.40
2023-02-27T17:36:51.284Z,70.50
2023-02-27T17:39:29.530Z,70.90
2023-02-27T17:42:00.756Z,71.00
2023-02-27T17:44:32.945Z,71.30
2023-02-27T17:47:02.101Z,71.50
2023-02-27T17:49:30.487Z,71.00
2023-02-27T17:52:02.293Z,71.00
2023-02-27T17:54:32.489Z,71.70
2023-02-27T17:57:01.142Z,71.60
2023-02-27T17:59:29.930Z,71.20
2023-02-27T18:01:59.061Z,71.30
2023-02-27T18:04:30.468Z,71.60
2023-02-27T18:06:59.709Z,71.70
2023-02-27T18:09:28.190Z,71.60
2023-02-27T18:11:58.147Z,72.20
2023-02-27T18:14:26.389Z,72.40
2023-02-27T18:16:54.410Z,72.10
2023-02-27T18:19:24.454Z,72.10
2023-02-27T18:21:53.036Z,72.30
2023-02-27T18:24:22.273Z,72.30
2023-02-27T18:26:50.670Z,72.20
2023-02-27T18:29:19.987Z,72.70
2023-02-27T18:31:50.292Z,73.00
2023-02-27T18:34:18.426Z,72.90
2023-02-27T18:36:46.553Z,73.00
2023-02-27T18:39:14.808Z,72.90
2023-02-27T18:41:43.206Z,72.50
2023-02-27T18:44:11.605Z,71.90
2023-02-27T18:46:41.168Z,72.00
2023-02-27T18:49:10.192Z,72.70
2023-02-27T18:51:38.558Z,71.90
2023-02-27T18:54:07.897Z,72.00
2023-02-27T18:56:36.105Z,71.70
2023-02-27T18:59:06.942Z,71.30
2023-02-27T19:01:37.185Z,70.40
2023-02-27T19:04:09.725Z,71.20
2023-02-27T19:06:40.987Z,70.90
2023-02-27T19:09:10.549Z,72.40
2023-02-27T19:11:43.723Z,71.60
2023-02-27T19:14:18.225Z,71.50
2023-02-27T19:16:50.901Z,71.70
2023-02-27T19:19:21.623Z,72.40
2023-02-27T19:21:50.581Z,72.90
2023-02-27T19:24:19.617Z,73.30
2023-02-27T19:26:48.901Z,73.30
2023-02-27T19:29:22.331Z,73.40
2023-02-27T19:31:50.943Z,73.80
2023-02-27T19:34:22.820Z,74.20
2023-02-27T19:36:50.966Z,74.30
2023-02-27T19:39:19.291Z,74.30
2023-02-27T19:41:47.439Z,74.10
2023-02-27T19:44:16.229Z,74.50
2023-02-27T19:46:46.575Z,74.40
2023-02-27T19:49:31.926Z,74.80
2023-02-27T19:52:01.024Z,74.40
2023-02-27T19:54:34.153Z,74.80
2023-02-27T19:57:03.872Z,75.10
2023-02-27T19:59:36.835Z,75.20
2023-02-27T20:02:09.563Z,75.40
2023-02-27T20:04:40.185Z,75.70
2023-02-27T20:07:11.604Z,76.00
2023-02-27T20:09:40.717Z,76.00
2023-02-27T20:12:13.479Z,76.20
2023-02-27T20:14:43.442Z,76.50
2023-02-27T20:17:14.955Z,76.70
2023-02-27T20:19:51.092Z,76.80
2023-02-27T20:22:20.743Z,77.30
2023-02-27T20:24:52.156Z,77.50
2023-02-27T20:27:28.723Z,77.40
2023-02-27T20:30:04.102Z,77.80
2023-02-27T20:32:35.397Z,78.30
2023-02-27T20:35:08.715Z,78.20
2023-02-27T20:37:43.071Z,78.30
2023-02-27T20:40:16.209Z,78.40
2023-02-27T20:42:52.033Z,78.70
2023-02-27T20:45:23.841Z,79.10
2023-02-27T20:47:53.696Z,79.50
2023-02-27T20:50:25.457Z,80.10
2023-02-27T20:53:00.587Z,80.50
2023-02-27T20:55:29.969Z,81.20
2023-02-27T20:57:58.426Z,81.50
2023-02-27T21:00:37.936Z,81.60
2023-02-27T21:03:12.156Z,82.10
2023-02-27T21:05:56.765Z,82.40
2023-02-27T21:08:29.145Z,82.70
2023-02-27T21:11:06.008Z,82.80
2023-02-27T21:13:41.754Z,83.30
2023-02-27T21:16:20.432Z,83.70
2023-02-27T21:18:52.603Z,84.00
2023-02-27T21:21:28.418Z,84.30
2023-02-27T21:24:01.246Z,84.70
2023-02-27T21:26:35.538Z,84.70
2023-02-27T21:29:07.265Z,84.80
2023-02-27T21:31:41.144Z,85.20
2023-02-27T21:34:19.990Z,85.60
2023-02-27T21:36:53.197Z,86.00
2023-02-27T21:39:26.784Z,86.60
2023-02-27T21:42:00.680Z,87.10
2023-02-27T21:44:45.748Z,87.40
2023-02-27T21:47:15.006Z,88.10
2023-02-27T21:49:52.524Z,88.80
2023-02-27T21:52:27.277Z,89.30
2023-02-27T21:54:56.823Z,89.90
2023-02-27T21:57:31.310Z,90.20
2023-02-27T22:00:04.610Z,90.50
2023-02-27T22:02:39.240Z,90.80
2023-02-27T22:05:08.928Z,91.10
2023-02-27T22:07:39.177Z,91.30
2023-02-27T22:10:09.543Z,91.40
2023-02-27T22:12:41.146Z,91.60
2023-02-27T22:15:11.190Z,91.90
2023-02-27T22:17:44.982Z,92.00
2023-02-27T22:20:14.960Z,92.30
2023-02-27T22:22:45.402Z,92.50
2023-02-27T22:25:17.235Z,92.70
2023-02-27T22:27:46.076Z,92.90
2023-02-27T22:30:15.380Z,93.20
2023-02-27T22:32:45.778Z,93.50
2023-02-27T22:35:14.343Z,93.60
2023-02-27T22:37:44.280Z,93.90
2023-02-27T22:40:13.992Z,94.20
2023-02-27T22:42:49.223Z,94.40
2023-02-27T22:45:20.920Z,94.50
2023-02-27T22:47:49.592Z,94.70
2023-02-27T22:50:22.975Z,95.10
2023-02-27T22:52:56.099Z,95.20
2023-02-27T22:55:24.458Z,95.50
2023-02-27T22:57:52.790Z,95.70
2023-02-27T23:00:21.801Z,96.00
2023-02-27T23:02:50.112Z,96.30
2023-02-27T23:05:18.665Z,96.60
2023-02-27T23:07:47.353Z,96.80
2023-02-27T23:10:18.991Z,97.10
2023-02-27T23:12:47.359Z,97.30
2023-02-27T23:15:15.835Z,97.70
2023-02-27T23:17:57.766Z,98.00
2023-02-27T23:20:26.734Z,98.30
2023-02-27T23:22:55.121Z,98.50
2023-02-27T23:25:24.324Z,98.70
2023-02-27T23:27:52.284Z,99.00
2023-02-27T23:30:21.783Z,99.20
2023-02-27T23:32:55.553Z,99.40
2023-02-27T23:35:30.824Z,99.60
2023-02-27T23:38:01.739Z,99.80
2023-02-27T23:40:31.373Z,99.90
2023-02-27T23:42:59.458Z,99.90
2023-02-27T23:45:27.765Z,99.90
2023-02-27T23:47:57.845Z,99.90
2023-02-27T23:50:27.627Z,99.90
2023-02-27T23:52:57.656Z,99.90
2023-02-27T23:55:26.445Z,99.90
2023-02-27T23:57:58.385Z,99.90
